Terminal Aerodrome Forecast
Issued by NWS Tampa Bay Area, FL

Home | Current Version | Previous Version | Text Only | Print | Product List | Glossary On
Versions: 1 2 3 4 5 6 7 8 9 10 11 12 13
000
FTUS42 KTBW 231734
TAFFMY
TAF
KFMY 231734Z 2318/2418 06011KT P6SM SCT030 BKN060
     FM232000 07013G18KT P6SM VCTS SCT025CB BKN060
     FM240200 07012G17KT P6SM SCT025 BKN060
     FM240600 07011KT P6SM FEW025 SCT060
     FM241600 09012G19KT P6SM FEW030 SCT250=

USA.gov is the U.S. government's official web portal to all federal, state and local government web resources and services.